Time;durP1;ratioP1;P1;durP2;ratioP2;P2;SDS_P1;SDS_P2;PMS_P1;PMS_P2;Temp;Humidity;BMP_temperature;BMP_pressure;BME280_temperature;BME280_humidity;BME280_pressure;Samples;Min_cycle;Max_cycle;Signal;HPM_P1;HPM_P2
2024/04/14 00:01:50;;;;;;;3.30;1.00;;;;;;;19.13;66.90;100737.84;5490771;26;19993;-68
2024/04/14 00:04:16;;;;;;;3.63;1.17;;;;;;;19.30;66.61;100734.09;5503127;26;20020;-68
2024/04/14 00:06:42;;;;;;;3.05;1.20;;;;;;;19.00;67.74;100736.84;5511400;25;19998;-64
2024/04/14 00:09:07;;;;;;;5.50;1.17;;;;;;;18.91;67.84;100745.53;5514749;25;20415;-65
2024/04/14 00:11:33;;;;;;;2.13;1.05;;;;;;;18.91;68.18;100737.34;5484787;25;19999;-65
2024/04/14 00:13:58;;;;;;;1.85;1.10;;;;;;;18.99;67.46;100725.13;5489086;26;19997;-64
2024/04/14 00:16:24;;;;;;;1.00;0.77;;;;;;;18.96;68.04;100731.44;5508411;26;20006;-64
2024/04/14 00:18:49;;;;;;;3.80;1.17;;;;;;;19.20;67.00;100737.75;5518049;26;20033;-65
2024/04/14 00:21:15;;;;;;;1.67;1.00;;;;;;;19.14;67.09;100742.91;5481620;26;20005;-66
2024/04/14 00:23:40;;;;;;;5.80;1.25;;;;;;;19.24;66.91;100746.69;5519476;25;20049;-64
2024/04/14 00:26:08;;;;;;;3.00;1.08;;;;;;;19.15;66.11;100741.72;5482921;26;20002;-65
2024/04/14 00:28:34;;;;;;;5.38;0.93;;;;;;;19.16;65.90;100745.22;5481148;26;20001;-64
2024/04/14 00:30:59;;;;;;;3.83;1.00;;;;;;;18.79;66.25;100748.81;5473956;26;20010;-65
2024/04/14 00:33:25;;;;;;;2.85;0.98;;;;;;;18.86;65.93;100756.91;5448480;26;19998;-66
2024/04/14 00:35:50;;;;;;;2.10;0.90;;;;;;;18.78;66.86;100747.25;5490510;26;20528;-64
2024/04/14 00:38:16;;;;;;;3.25;0.85;;;;;;;18.83;66.61;100749.53;5511085;25;20343;-65
2024/04/14 00:40:42;;;;;;;3.70;0.95;;;;;;;18.67;66.81;100749.31;5494402;26;20049;-65
2024/04/14 00:43:07;;;;;;;2.80;1.20;;;;;;;18.88;65.84;100746.34;5462451;26;20001;-64
2024/04/14 00:45:33;;;;;;;1.35;0.57;;;;;;;18.88;65.86;100740.88;5490530;26;19998;-64
2024/04/14 00:47:58;;;;;;;1.50;0.82;;;;;;;18.47;67.48;100732.00;5510567;26;20006;-65
2024/04/14 00:50:25;;;;;;;5.13;0.82;;;;;;;18.67;66.56;100735.69;5483644;25;19999;-65
2024/04/14 00:52:51;;;;;;;2.88;0.90;;;;;;;18.72;66.74;100721.56;5513377;26;20023;-65
2024/04/14 00:55:18;;;;;;;2.17;0.73;;;;;;;18.65;67.32;100738.03;5506201;25;20009;-66
2024/04/14 00:57:44;;;;;;;4.28;1.05;;;;;;;18.99;65.94;100732.56;5513116;26;20085;-65
2024/04/14 01:00:11;;;;;;;0.90;0.70;;;;;;;18.77;66.47;100732.06;5511301;25;20013;-65
2024/04/14 01:02:36;;;;;;;5.35;1.30;;;;;;;18.90;66.35;100733.06;5473941;26;20499;-66
2024/04/14 01:05:02;;;;;;;0.88;0.65;;;;;;;18.82;66.06;100729.66;5487524;26;20001;-64
2024/04/14 01:07:28;;;;;;;1.85;0.80;;;;;;;18.78;67.23;100736.31;5482359;26;19997;-66
2024/04/14 01:09:54;;;;;;;3.28;0.82;;;;;;;18.95;66.78;100738.06;5490082;25;19997;-65
2024/04/14 01:12:19;;;;;;;5.70;1.02;;;;;;;18.55;67.99;100739.72;5490234;26;20057;-64
2024/04/14 01:14:45;;;;;;;5.82;1.00;;;;;;;18.44;69.19;100739.06;5487795;26;20001;-64
2024/04/14 01:17:10;;;;;;;2.30;1.05;;;;;;;18.36;69.85;100740.28;5521370;26;20016;-66
2024/04/14 01:19:36;;;;;;;1.80;1.00;;;;;;;18.69;68.24;100758.66;5513023;26;20619;-64
2024/04/14 01:22:02;;;;;;;3.75;1.02;;;;;;;18.72;67.42;100746.13;5513543;26;19994;-65
2024/04/14 01:24:27;;;;;;;4.03;1.30;;;;;;;18.79;67.41;100749.56;5507976;25;19989;-65
2024/04/14 01:26:52;;;;;;;2.17;0.75;;;;;;;18.83;68.03;100742.09;5484022;26;20013;-65
2024/04/14 01:29:18;;;;;;;2.08;0.95;;;;;;;18.59;68.33;100742.38;5476702;26;20119;-66
2024/04/14 01:31:44;;;;;;;1.98;1.10;;;;;;;18.80;67.82;100733.97;5510048;26;20006;-65
2024/04/14 01:34:09;;;;;;;1.38;0.93;;;;;;;18.33;70.51;100753.94;5514264;25;20006;-64
2024/04/14 01:36:34;;;;;;;2.38;0.80;;;;;;;18.02;71.91;100758.53;5467724;26;20327;-65
2024/04/14 01:39:03;;;;;;;0.82;0.80;;;;;;;18.11;72.20;100753.38;5517259;25;19997;-64
2024/04/14 01:41:28;;;;;;;2.05;0.93;;;;;;;17.92;73.93;100762.84;5491629;26;20049;-69
2024/04/14 01:43:54;;;;;;;4.10;1.13;;;;;;;17.44;75.60;100764.72;5487315;26;19994;-64
2024/04/14 01:46:19;;;;;;;2.60;0.88;;;;;;;17.75;75.76;100766.50;5479530;26;20009;-65
2024/04/14 01:48:45;;;;;;;2.65;1.45;;;;;;;18.09;73.88;100774.03;5491891;25;19994;-65
2024/04/14 01:51:10;;;;;;;3.65;1.25;;;;;;;17.78;75.00;100764.94;5455207;25;20502;-66
2024/04/14 01:53:36;;;;;;;5.82;1.38;;;;;;;17.58;75.36;100766.59;5515328;25;20001;-65
2024/04/14 01:56:02;;;;;;;3.65;1.05;;;;;;;17.58;75.64;100755.72;5517660;26;19994;-64
2024/04/14 01:58:27;;;;;;;3.92;1.38;;;;;;;17.59;75.41;100768.97;5503337;26;19994;-65
2024/04/14 02:00:53;;;;;;;3.20;1.30;;;;;;;17.61;76.35;100761.16;5519026;25;20520;-65
2024/04/14 02:03:18;;;;;;;5.72;1.30;;;;;;;17.67;75.68;100758.78;5524255;26;20012;-64
2024/04/14 02:05:47;;;;;;;3.63;1.42;;;;;;;17.48;76.42;100770.16;5514360;25;20097;-64
2024/04/14 02:08:12;;;;;;;3.95;1.10;;;;;;;17.70;75.65;100769.66;5519929;25;19994;-65
2024/04/14 02:10:43;;;;;;;8.70;1.83;;;;;;;17.59;76.43;100773.63;5485357;26;20448;-67
2024/04/14 02:13:09;;;;;;;2.67;1.00;;;;;;;17.80;74.94;100776.19;5521854;26;20016;-65
2024/04/14 02:15:34;;;;;;;4.50;1.20;;;;;;;17.52;76.72;100776.38;5489361;25;19997;-65
2024/04/14 02:18:00;;;;;;;9.23;1.45;;;;;;;17.36;77.56;100765.94;5506277;26;19993;-65
2024/04/14 02:20:25;;;;;;;1.77;1.13;;;;;;;17.30;78.30;100777.66;5491288;26;20467;-65
2024/04/14 02:22:51;;;;;;;2.53;1.27;;;;;;;17.30;77.39;100775.72;5524566;25;20001;-64
2024/04/14 02:25:16;;;;;;;2.60;1.38;;;;;;;17.50;76.95;100779.50;5487394;26;19998;-65
2024/04/14 02:27:42;;;;;;;2.33;1.45;;;;;;;17.81;75.74;100789.41;5486881;26;20029;-66
2024/04/14 02:30:08;;;;;;;3.92;1.40;;;;;;;17.26;77.33;100785.06;5490774;25;20462;-65
2024/04/14 02:32:33;;;;;;;6.90;1.75;;;;;;;17.40;77.17;100795.88;5513362;26;20615;-65
2024/04/14 02:34:59;;;;;;;2.35;1.60;;;;;;;17.22;77.20;100800.63;5524295;26;20011;-69
2024/04/14 02:37:25;;;;;;;2.03;1.38;;;;;;;17.25;76.83;100797.88;5519896;25;20026;-65
2024/04/14 02:39:51;;;;;;;2.92;1.25;;;;;;;17.27;74.78;100808.38;5511107;25;19998;-65
2024/04/14 02:42:18;;;;;;;1.88;0.93;;;;;;;17.00;73.68;100805.38;5466387;26;20005;-65
2024/04/14 02:44:44;;;;;;;1.70;0.80;;;;;;;16.85;74.50;100804.66;5520302;26;20005;-65
2024/04/14 02:47:09;;;;;;;1.30;0.77;;;;;;;16.72;73.11;100805.47;5522227;26;20415;-64
2024/04/14 02:49:35;;;;;;;4.72;1.13;;;;;;;16.60;73.55;100816.75;5490304;26;20017;-66
2024/04/14 02:52:00;;;;;;;3.85;0.90;;;;;;;16.50;72.74;100825.69;5521905;25;20073;-64
2024/04/14 02:54:25;;;;;;;1.23;0.50;;;;;;;16.60;72.60;100825.69;5518089;26;20009;-65
2024/04/14 02:56:52;;;;;;;1.90;1.02;;;;;;;16.82;71.71;100832.63;5480297;26;20002;-67
2024/04/14 02:59:17;;;;;;;2.35;1.08;;;;;;;16.54;71.80;100842.78;5515102;26;20593;-68
2024/04/14 03:01:45;;;;;;;3.20;0.52;;;;;;;16.44;72.67;100848.97;5493043;26;19998;-64
2024/04/14 03:04:11;;;;;;;1.05;0.93;;;;;;;16.71;71.28;100852.84;5484420;26;20012;-67
2024/04/14 03:06:36;;;;;;;1.73;0.73;;;;;;;16.54;71.78;100854.44;5484080;26;19989;-65
2024/04/14 03:09:02;;;;;;;2.25;0.60;;;;;;;16.55;71.99;100852.50;5488572;26;20012;-65
2024/04/14 03:11:27;;;;;;;0.98;0.50;;;;;;;16.65;70.75;100846.25;5467718;25;20003;-65
2024/04/14 03:13:53;;;;;;;6.50;0.85;;;;;;;16.55;69.31;100853.25;5523579;26;20001;-64
2024/04/14 03:16:18;;;;;;;2.25;0.45;;;;;;;16.41;68.88;100855.19;5522038;25;19993;-65
2024/04/14 03:18:46;;;;;;;2.15;0.65;;;;;;;16.63;68.83;100851.31;5512594;25;21028;-66
2024/04/14 03:21:12;;;;;;;1.08;0.68;;;;;;;16.41;69.16;100858.69;5516703;26;20001;-66
2024/04/14 03:23:39;;;;;;;4.47;0.50;;;;;;;16.44;68.62;100862.56;5519000;25;20005;-67
2024/04/14 03:26:04;;;;;;;2.28;0.95;;;;;;;16.29;68.30;100864.50;5499841;26;20001;-66
2024/04/14 03:28:30;;;;;;;1.77;0.55;;;;;;;16.15;67.35;100859.84;5519252;25;20001;-66
2024/04/14 03:31:00;;;;;;;2.75;0.40;;;;;;;16.20;66.66;100867.59;5492074;26;20001;-64
2024/04/14 03:33:25;;;;;;;0.75;0.30;;;;;;;15.89;66.23;100871.03;5491218;25;20009;-67
2024/04/14 03:36:07;;;;;;;2.65;0.60;;;;;;;15.99;66.17;100864.88;5519048;25;20042;-65
2024/04/14 03:38:33;;;;;;;3.25;0.43;;;;;;;16.26;65.50;100879.66;5515283;25;20006;-65
2024/04/14 03:40:59;;;;;;;3.05;0.70;;;;;;;15.92;65.20;100891.25;5490879;26;20033;-66
2024/04/14 03:43:24;;;;;;;3.40;0.68;;;;;;;15.83;64.26;100888.88;5523843;25;20009;-65
2024/04/14 03:45:50;;;;;;;0.73;0.40;;;;;;;15.48;64.03;100890.72;5449490;26;20002;-65
2024/04/14 03:48:15;;;;;;;0.93;0.65;;;;;;;15.37;63.87;100890.63;5476256;26;20006;-66
2024/04/14 03:50:40;;;;;;;3.03;0.60;;;;;;;15.28;64.56;100888.28;5488006;26;20359;-65
2024/04/14 03:53:06;;;;;;;0.50;0.43;;;;;;;15.41;63.96;100896.84;5479646;26;20064;-65
2024/04/14 03:55:32;;;;;;;0.73;0.52;;;;;;;15.13;64.97;100904.84;5517487;25;20005;-65
2024/04/14 03:57:58;;;;;;;4.38;0.80;;;;;;;15.24;64.76;100905.69;5518487;26;20002;-65
2024/04/14 04:00:23;;;;;;;3.70;1.13;;;;;;;15.06;65.65;100912.97;5512452;26;20002;-66
2024/04/14 04:02:50;;;;;;;3.60;0.50;;;;;;;15.12;66.34;100906.78;5472234;26;20057;-65
2024/04/14 04:05:15;;;;;;;3.63;0.82;;;;;;;15.15;65.55;100921.53;5474589;26;20144;-65
2024/04/14 04:07:41;;;;;;;5.93;1.00;;;;;;;15.45;64.72;100924.06;5512448;26;20485;-65
2024/04/14 04:10:09;;;;;;;3.13;0.70;;;;;;;15.05;65.59;100927.66;5514818;25;20395;-65
2024/04/14 04:12:34;;;;;;;3.40;0.75;;;;;;;15.04;66.16;100921.44;5485316;25;19993;-65
2024/04/14 04:14:59;;;;;;;0.68;0.40;;;;;;;15.17;65.38;100925.44;5513783;26;20005;-65
2024/04/14 04:17:25;;;;;;;3.22;0.70;;;;;;;14.90;66.41;100926.00;5517231;25;20583;-64
2024/04/14 04:19:50;;;;;;;4.03;0.60;;;;;;;14.73;66.71;100923.97;5502237;26;20008;-65
2024/04/14 04:22:16;;;;;;;1.75;0.73;;;;;;;14.37;67.88;100925.56;5478527;26;19998;-64
2024/04/14 04:24:41;;;;;;;1.13;0.57;;;;;;;14.20;66.66;100924.22;5517159;25;19989;-65
2024/04/14 04:27:06;;;;;;;1.27;0.38;;;;;;;14.55;66.44;100931.16;5479546;26;20377;-64
2024/04/14 04:29:32;;;;;;;3.58;0.85;;;;;;;14.78;66.05;100923.59;5518070;25;19997;-65
2024/04/14 04:31:58;;;;;;;5.72;0.47;;;;;;;14.76;65.59;100942.16;5477915;26;20377;-65
2024/04/14 04:34:23;;;;;;;4.15;0.63;;;;;;;14.48;66.50;100940.78;5448340;26;20478;-64
2024/04/14 04:36:50;;;;;;;1.00;0.30;;;;;;;14.52;67.08;100942.75;5483286;26;20037;-66
2024/04/14 04:39:16;;;;;;;4.43;0.70;;;;;;;14.25;66.36;100950.19;5478767;26;20004;-64
2024/04/14 04:41:41;;;;;;;1.25;0.38;;;;;;;14.12;65.88;100957.03;5513638;25;19997;-65
2024/04/14 04:44:07;;;;;;;1.70;0.70;;;;;;;14.08;65.47;100953.50;5519327;26;20339;-66
2024/04/14 04:46:33;;;;;;;2.88;0.65;;;;;;;14.42;64.85;100965.88;5478890;26;19994;-65
2024/04/14 04:48:59;;;;;;;5.90;0.57;;;;;;;14.41;64.17;100970.53;5492717;26;20005;-64
2024/04/14 04:51:26;;;;;;;0.50;0.28;;;;;;;14.51;64.59;100973.69;5482186;26;20022;-65
2024/04/14 04:53:52;;;;;;;8.57;0.88;;;;;;;14.72;63.40;100971.19;5482990;26;20038;-65
2024/04/14 04:56:17;;;;;;;2.58;1.35;;;;;;;14.76;62.75;100974.72;5515296;25;20002;-65
2024/04/14 04:58:42;;;;;;;5.40;0.65;;;;;;;14.63;62.63;100970.72;5508158;26;20002;-65
2024/04/14 05:01:09;;;;;;;0.35;0.28;;;;;;;14.21;64.75;100977.25;5514327;25;20004;-66
2024/04/14 05:03:37;;;;;;;2.50;0.40;;;;;;;14.04;65.23;100977.84;5509234;26;20446;-65
2024/04/14 05:06:04;;;;;;;7.10;0.93;;;;;;;14.35;63.62;100980.16;5507854;25;20024;-65
2024/04/14 05:08:31;;;;;;;1.75;0.50;;;;;;;14.35;63.86;100987.47;5518886;26;19989;-64
2024/04/14 05:10:57;;;;;;;1.95;0.63;;;;;;;14.69;62.76;101004.47;5458834;26;20046;-64
2024/04/14 05:13:24;;;;;;;1.13;0.35;;;;;;;14.59;62.58;100989.66;5512578;25;20081;-64
2024/04/14 05:15:50;;;;;;;7.90;0.80;;;;;;;14.45;62.92;100992.25;5510595;25;20020;-65
2024/04/14 05:18:16;;;;;;;3.15;0.30;;;;;;;14.42;63.07;100996.47;5484265;26;20002;-65
2024/04/14 05:20:42;;;;;;;0.43;0.20;;;;;;;14.34;62.94;101007.63;5510170;25;20008;-65
2024/04/14 05:23:08;;;;;;;2.45;0.75;;;;;;;14.72;61.89;101009.94;5484812;26;20026;-65
2024/04/14 05:25:34;;;;;;;3.53;0.93;;;;;;;14.68;62.24;101006.41;5454755;26;20005;-65
2024/04/14 05:28:00;;;;;;;4.95;0.57;;;;;;;14.80;62.12;101006.13;5488103;25;19993;-65
2024/04/14 05:30:28;;;;;;;4.10;0.40;;;;;;;15.05;61.45;101006.31;5505760;25;20017;-65
2024/04/14 05:32:54;;;;;;;6.93;0.73;;;;;;;15.10;61.19;101003.25;5488939;26;20043;-65
2024/04/14 05:35:20;;;;;;;2.30;1.05;;;;;;;14.77;61.62;100997.97;5507667;26;20013;-65
2024/04/14 05:37:46;;;;;;;3.72;0.75;;;;;;;15.17;61.28;101008.75;5455240;26;20013;-66
2024/04/14 05:40:13;;;;;;;8.98;0.65;;;;;;;15.36;61.42;101005.78;5516428;25;20073;-65
2024/04/14 05:42:38;;;;;;;6.57;0.80;;;;;;;15.16;62.10;101023.47;5519350;26;20069;-65
2024/04/14 05:45:09;;;;;;;4.50;0.50;;;;;;;15.05;62.57;101017.19;5483656;26;20002;-66
2024/04/14 05:47:35;;;;;;;10.20;0.90;;;;;;;15.20;62.16;101018.84;5514378;25;20009;-64
2024/04/14 05:50:01;;;;;;;5.35;0.40;;;;;;;15.02;60.79;101024.13;5458810;25;20049;-69
2024/04/14 05:52:26;;;;;;;0.47;0.47;;;;;;;14.70;59.57;101033.13;5513375;26;20002;-66
2024/04/14 05:54:52;;;;;;;2.22;0.57;;;;;;;14.77;58.88;101031.25;5516811;25;20347;-65
2024/04/14 05:57:17;;;;;;;1.58;0.40;;;;;;;14.65;58.72;101028.06;5517310;25;19998;-64
2024/04/14 05:59:48;;;;;;;3.28;0.60;;;;;;;14.70;60.16;101027.72;5478486;26;20040;-64
2024/04/14 06:02:15;;;;;;;3.53;0.40;;;;;;;14.59;60.98;101032.25;5476359;26;20405;-64
2024/04/14 06:04:40;;;;;;;0.25;0.20;;;;;;;14.72;60.95;101050.59;5503943;25;20008;-64
2024/04/14 06:07:06;;;;;;;4.43;0.80;;;;;;;14.56;61.96;101046.53;5502482;26;19994;-67
2024/04/14 06:09:32;;;;;;;2.45;0.40;;;;;;;14.47;62.06;101052.28;5450055;26;20561;-65
2024/04/14 06:11:57;;;;;;;1.92;0.68;;;;;;;14.87;62.49;101046.84;5511069;25;20012;-65
2024/04/14 06:14:22;;;;;;;7.90;0.73;;;;;;;14.99;60.46;101053.94;5477456;26;20459;-65
2024/04/14 06:16:48;;;;;;;1.45;0.50;;;;;;;15.10;59.76;101055.59;5513378;26;19997;-64
2024/04/14 06:19:14;;;;;;;2.08;0.85;;;;;;;15.17;57.08;101058.38;5446349;26;20741;-67
2024/04/14 06:21:40;;;;;;;1.35;0.70;;;;;;;15.23;57.17;101061.53;5484962;25;20008;-65
2024/04/14 06:24:06;;;;;;;5.40;0.50;;;;;;;15.44;56.34;101067.13;5511413;25;20005;-64
2024/04/14 06:26:31;;;;;;;7.28;0.38;;;;;;;15.64;56.05;101065.69;5514770;25;20002;-66
2024/04/14 06:28:57;;;;;;;4.95;0.55;;;;;;;15.72;56.40;101063.81;5509423;25;20005;-65
2024/04/14 06:31:23;;;;;;;2.78;0.57;;;;;;;15.66;55.78;101076.22;5484318;26;20001;-65
2024/04/14 06:33:48;;;;;;;0.88;0.73;;;;;;;15.29;55.60;101077.06;5490773;26;19998;-65
2024/04/14 06:36:13;;;;;;;3.85;0.50;;;;;;;15.67;55.32;101075.81;5479093;26;19998;-65
2024/04/14 06:38:44;;;;;;;1.27;0.52;;;;;;;15.82;55.09;101072.03;5513927;26;20005;-66
2024/04/14 06:41:12;;;;;;;0.65;0.20;;;;;;;15.90;54.85;101070.91;5523958;25;20008;-65
2024/04/14 06:43:38;;;;;;;4.88;0.68;;;;;;;16.12;54.22;101080.72;5513870;25;20004;-65
2024/04/14 06:46:03;;;;;;;7.53;0.30;;;;;;;15.78;53.31;101084.81;5519683;25;20327;-65
2024/04/14 06:48:29;;;;;;;8.15;0.85;;;;;;;15.79;52.65;101080.94;5461589;26;19994;-64
2024/04/14 06:50:54;;;;;;;2.15;0.57;;;;;;;16.08;52.80;101100.91;5521539;25;19993;-65
2024/04/14 06:53:21;;;;;;;6.82;0.40;;;;;;;16.02;52.67;101100.50;5510284;26;20010;-65
2024/04/14 06:55:47;;;;;;;6.72;1.65;;;;;;;16.27;53.28;101087.78;5479944;26;20366;-64
2024/04/14 06:58:13;;;;;;;8.23;0.45;;;;;;;16.44;52.94;101088.22;5455205;26;20448;-66
2024/04/14 07:00:39;;;;;;;1.45;0.47;;;;;;;16.46;53.03;101092.13;5486101;25;20065;-65
2024/04/14 07:03:05;;;;;;;4.00;0.63;;;;;;;16.63;53.60;101096.09;5484352;26;20005;-65
2024/04/14 07:05:30;;;;;;;0.63;0.60;;;;;;;16.70;53.15;101096.13;5520847;26;20025;-65
2024/04/14 07:07:55;;;;;;;1.30;0.60;;;;;;;16.51;52.70;101093.72;5520910;26;20020;-64
2024/04/14 07:10:21;;;;;;;8.70;0.60;;;;;;;16.34;53.93;101097.91;5490457;26;20016;-65
2024/04/14 07:12:46;;;;;;;3.80;0.77;;;;;;;16.37;52.90;101099.09;5512836;26;20002;-67
2024/04/14 07:15:12;;;;;;;2.47;0.47;;;;;;;15.98;53.80;101104.34;5482021;26;20008;-64
2024/04/14 07:17:37;;;;;;;1.45;0.20;;;;;;;16.07;53.71;101100.13;5483500;26;20342;-65
2024/04/14 07:20:04;;;;;;;4.40;0.75;;;;;;;16.17;53.90;101104.03;5488660;25;20005;-66
2024/04/14 07:22:29;;;;;;;3.47;0.63;;;;;;;16.42;53.33;101109.56;5512114;25;20004;-65
2024/04/14 07:24:55;;;;;;;5.07;0.57;;;;;;;16.41;52.72;101110.75;5515358;25;20607;-66
2024/04/14 07:27:20;;;;;;;2.33;0.60;;;;;;;16.64;51.81;101108.53;5489232;26;19994;-66
2024/04/14 07:29:46;;;;;;;3.47;0.50;;;;;;;17.05;51.42;101115.25;5487179;25;20012;-65
2024/04/14 07:32:11;;;;;;;1.70;0.77;;;;;;;17.33;51.03;101112.53;5514635;26;20009;-66
2024/04/14 07:34:37;;;;;;;1.40;0.20;;;;;;;17.58;50.86;101112.53;5523560;26;20005;-66
2024/04/14 07:37:04;;;;;;;2.80;0.88;;;;;;;17.08;49.84;101111.72;5518436;26;20671;-65
2024/04/14 07:39:30;;;;;;;5.10;0.65;;;;;;;16.80;50.08;101108.97;5488738;25;20001;-65
2024/04/14 07:41:55;;;;;;;3.80;0.75;;;;;;;16.59;51.17;101109.66;5520639;25;20069;-66
2024/04/14 07:44:21;;;;;;;0.60;0.20;;;;;;;16.93;50.42;101124.56;5522735;25;20008;-65
2024/04/14 07:46:46;;;;;;;4.95;0.65;;;;;;;16.95;50.31;101116.78;5490241;26;20012;-65
2024/04/14 07:49:11;;;;;;;0.93;0.55;;;;;;;16.74;49.75;101121.38;5525534;26;19998;-66
2024/04/14 07:51:37;;;;;;;2.90;0.47;;;;;;;16.62;50.29;101129.91;5489909;25;19993;-65
2024/04/14 07:54:03;;;;;;;4.65;0.63;;;;;;;16.48;50.38;101136.06;5518937;25;20001;-66
2024/04/14 07:56:28;;;;;;;3.90;0.50;;;;;;;16.50;49.97;101133.72;5488031;26;20008;-66
2024/04/14 07:58:53;;;;;;;2.30;0.43;;;;;;;16.59;50.99;101136.13;5487706;26;20002;-64
2024/04/14 08:01:19;;;;;;;3.83;0.63;;;;;;;16.81;50.33;101135.00;5474830;26;20013;-65
2024/04/14 08:03:44;;;;;;;2.28;0.50;;;;;;;17.24;50.23;101139.38;5491467;26;19997;-65
2024/04/14 08:06:10;;;;;;;3.70;0.50;;;;;;;17.45;49.43;101146.75;5481177;26;20347;-65
2024/04/14 08:08:35;;;;;;;2.35;0.47;;;;;;;17.51;48.05;101147.97;5517703;25;20027;-65
2024/04/14 08:11:00;;;;;;;2.42;0.52;;;;;;;17.50;47.54;101152.63;5519238;25;20018;-66
2024/04/14 08:13:26;;;;;;;2.25;0.80;;;;;;;17.70;48.39;101148.34;5507613;26;20008;-65
2024/04/14 08:15:51;;;;;;;3.83;0.55;;;;;;;17.95;48.97;101143.66;5513734;25;20012;-65
2024/04/14 08:18:18;;;;;;;2.67;0.77;;;;;;;18.43;46.62;101157.56;5479245;26;20396;-64
2024/04/14 08:20:45;;;;;;;1.38;0.45;;;;;;;18.27;46.49;101149.03;5483836;26;20380;-64
2024/04/14 08:23:10;;;;;;;2.00;0.32;;;;;;;18.04;45.60;101146.72;5480813;26;20472;-65
2024/04/14 08:25:39;;;;;;;3.88;0.50;;;;;;;18.43;46.36;101152.09;5483473;26;19997;-65
2024/04/14 08:28:04;;;;;;;3.03;0.93;;;;;;;18.59;45.94;101157.88;5483126;26;20515;-65
2024/04/14 08:30:30;;;;;;;3.03;0.40;;;;;;;18.52;45.88;101162.59;5482900;26;20001;-64
2024/04/14 08:32:55;;;;;;;5.63;1.00;;;;;;;18.82;46.30;101157.38;5485081;26;19998;-65
2024/04/14 08:35:21;;;;;;;6.53;0.65;;;;;;;18.76;45.23;101159.75;5513751;26;20009;-64
2024/04/14 08:37:46;;;;;;;1.48;0.45;;;;;;;18.57;45.47;101154.00;5513844;25;20459;-65
2024/04/14 08:40:12;;;;;;;5.13;0.77;;;;;;;18.61;44.41;101171.91;5464543;25;20029;-66
2024/04/14 08:42:37;;;;;;;0.40;0.20;;;;;;;18.83;44.85;101172.59;5523103;26;19994;-64
2024/04/14 08:45:04;;;;;;;5.70;0.47;;;;;;;19.52;45.99;101167.09;5488908;26;19994;-65
2024/04/14 08:47:31;;;;;;;2.38;0.63;;;;;;;19.91;44.38;101169.50;5494135;26;20376;-66
2024/04/14 08:49:58;;;;;;;8.63;0.57;;;;;;;19.85;43.65;101180.09;5482176;25;20434;-65
2024/04/14 08:52:26;;;;;;;7.45;0.60;;;;;;;19.89;43.31;101178.09;5484148;25;19998;-64
2024/04/14 08:54:51;;;;;;;0.60;0.43;;;;;;;20.06;42.39;101190.03;5486460;26;20094;-65
2024/04/14 08:57:18;;;;;;;1.42;0.40;;;;;;;20.13;41.95;101184.53;5507490;25;20034;-65
2024/04/14 08:59:49;;;;;;;3.78;0.63;;;;;;;20.02;41.47;101195.56;5527035;25;20332;-65
2024/04/14 09:02:14;;;;;;;;;;;;;;;20.11;41.05;101184.16;5479734;26;20010;-69
2024/04/14 09:04:42;;;;;;;3.20;0.47;;;;;;;19.79;40.67;101189.91;5521179;25;19931;-66
2024/04/14 09:07:07;;;;;;;1.02;0.30;;;;;;;19.77;40.55;101175.88;5490993;26;19990;-65
2024/04/14 09:09:33;;;;;;;2.00;0.60;;;;;;;20.13;41.56;101173.59;5516568;25;20000;-64
2024/04/14 09:12:00;;;;;;;3.30;0.43;;;;;;;20.33;41.50;101189.00;5484680;26;20037;-63
2024/04/14 09:14:25;;;;;;;2.30;0.38;;;;;;;20.57;41.91;101185.22;5518882;25;20008;-64
2024/04/14 09:16:51;;;;;;;4.30;0.40;;;;;;;20.66;39.61;101180.03;5485635;26;20412;-64
2024/04/14 09:19:18;;;;;;;4.78;0.38;;;;;;;20.86;40.38;101201.28;5482322;26;20006;-64
2024/04/14 09:21:44;;;;;;;1.60;0.50;;;;;;;21.19;40.42;101198.53;5523053;25;20344;-64
2024/04/14 09:24:09;;;;;;;0.98;0.40;;;;;;;21.07;40.50;101199.06;5491305;26;20551;-63
2024/04/14 09:26:35;;;;;;;5.95;0.70;;;;;;;20.64;40.16;101198.03;5509480;26;20013;-65
2024/04/14 09:29:06;;;;;;;1.63;0.40;;;;;;;20.22;41.82;101204.00;5514678;26;20393;-64
2024/04/14 09:31:35;;;;;;;5.50;0.50;;;;;;;20.28;41.55;101194.16;5512049;25;20017;-65
2024/04/14 09:34:03;;;;;;;0.40;0.30;;;;;;;20.33;43.26;101199.97;5486710;26;20312;-65
2024/04/14 09:36:29;;;;;;;7.10;0.90;;;;;;;20.34;42.53;101208.94;5505784;26;20006;-64
2024/04/14 09:38:55;;;;;;;2.08;0.60;;;;;;;20.03;41.10;101199.06;5506024;26;20004;-64
2024/04/14 09:41:21;;;;;;;0.50;0.30;;;;;;;19.70;41.48;101195.81;5519391;25;19989;-69
2024/04/14 09:43:49;;;;;;;0.95;0.40;;;;;;;19.89;42.72;101199.19;5502387;25;20010;-65
2024/04/14 09:46:14;;;;;;;3.55;0.43;;;;;;;19.49;42.13;101196.00;5494304;26;20002;-64
2024/04/14 09:48:42;;;;;;;3.88;0.80;;;;;;;19.18;43.54;101190.75;5505682;25;20021;-64
2024/04/14 09:51:09;;;;;;;4.88;0.95;;;;;;;19.16;43.04;101206.75;5507721;25;21989;-65
2024/04/14 09:53:35;;;;;;;5.38;0.70;;;;;;;19.10;42.28;101205.59;5484466;26;20010;-65
2024/04/14 09:56:01;;;;;;;1.08;0.43;;;;;;;18.78;42.49;101203.03;5470098;26;20470;-67
2024/04/14 09:58:27;;;;;;;2.33;1.02;;;;;;;18.88;42.00;101199.47;5516875;25;20391;-65
2024/04/14 10:00:57;;;;;;;0.77;0.28;;;;;;;19.12;42.18;101190.38;5516599;25;20077;-66
2024/04/14 10:03:25;;;;;;;4.13;0.43;;;;;;;19.20;41.67;101194.59;5518983;26;20008;-65
2024/04/14 10:05:51;;;;;;;3.40;0.63;;;;;;;19.12;42.29;101198.56;5518653;25;19998;-65
2024/04/14 10:08:18;;;;;;;0.85;0.47;;;;;;;18.82;41.58;101210.03;5484103;26;20013;-65
2024/04/14 10:10:43;;;;;;;0.47;0.35;;;;;;;19.26;41.21;101211.38;5511474;25;20001;-65
2024/04/14 10:13:09;;;;;;;4.10;0.25;;;;;;;19.74;40.70;101218.44;5523489;26;19993;-65
2024/04/14 10:15:38;;;;;;;5.03;0.60;;;;;;;19.76;39.79;101205.16;5459165;26;20020;-67
2024/04/14 10:18:18;;;;;;;0.80;0.50;;;;;;;19.37;39.90;101199.22;5486958;26;20006;-65
2024/04/14 10:20:44;;;;;;;2.80;0.52;;;;;;;19.20;40.10;101210.22;5522013;25;19994;-66
2024/04/14 10:23:18;;;;;;;1.45;0.22;;;;;;;19.59;41.01;101214.28;5515610;26;19993;-64
2024/04/14 10:25:48;;;;;;;2.45;0.20;;;;;;;19.79;39.46;101206.31;5498865;26;19993;-65
2024/04/14 10:28:18;;;;;;;2.30;1.30;;;;;;;20.22;40.12;101207.50;5525102;25;19998;-65
2024/04/14 10:30:44;;;;;;;0.40;0.30;;;;;;;20.64;38.74;101220.72;5510300;25;20034;-64
2024/04/14 10:33:20;;;;;;;0.70;0.40;;;;;;;20.83;38.07;101207.59;5488126;26;20027;-66
2024/04/14 10:36:05;;;;;;;1.05;0.47;;;;;;;21.14;37.31;101203.66;5515041;25;20364;-65
2024/04/14 10:38:33;;;;;;;1.48;0.25;;;;;;;21.62;37.81;101214.31;5490177;26;21098;-68
2024/04/14 10:40:59;;;;;;;0.93;0.30;;;;;;;21.97;36.79;101211.78;5519626;25;20010;-65
2024/04/14 10:43:26;;;;;;;1.38;0.40;;;;;;;21.96;36.72;101220.44;5514152;26;20110;-65
2024/04/14 10:45:52;;;;;;;3.22;0.22;;;;;;;21.75;37.34;101216.06;5511106;25;20002;-65
2024/04/14 10:48:17;;;;;;;2.83;0.50;;;;;;;21.33;37.27;101213.97;5473819;26;20460;-64
2024/04/14 10:50:43;;;;;;;1.95;0.30;;;;;;;21.37;37.74;101218.19;5510611;25;19998;-65
2024/04/14 10:53:09;;;;;;;2.90;0.30;;;;;;;21.01;37.54;101219.91;5517798;25;20005;-67
2024/04/14 10:55:34;;;;;;;3.60;0.65;;;;;;;20.32;38.21;101214.06;5458236;25;20000;-64
2024/04/14 10:58:00;;;;;;;1.65;0.32;;;;;;;20.23;39.19;101219.22;5486423;25;19998;-63
2024/04/14 11:00:26;;;;;;;4.10;0.50;;;;;;;19.86;39.35;101211.72;5516714;25;20404;-65
2024/04/14 11:02:52;;;;;;;0.20;0.10;;;;;;;19.98;39.93;101221.38;5491683;26;20362;-64
2024/04/14 11:05:19;;;;;;;3.20;0.45;;;;;;;20.53;39.78;101222.03;5475670;26;20006;-64
2024/04/14 11:07:44;;;;;;;1.42;0.30;;;;;;;20.78;38.30;101219.00;5516844;25;20001;-64
2024/04/14 11:10:12;;;;;;;0.55;0.30;;;;;;;21.21;37.42;101220.03;5486344;26;20716;-65
2024/04/14 11:12:39;;;;;;;1.48;0.85;;;;;;;21.47;37.78;101220.00;5486710;26;20001;-64
2024/04/14 11:15:06;;;;;;;1.25;0.20;;;;;;;21.54;37.43;101219.91;5511037;26;20076;-64
2024/04/14 11:17:33;;;;;;;2.25;0.30;;;;;;;21.62;36.71;101212.34;5484795;26;20466;-64
2024/04/14 11:19:59;;;;;;;3.72;0.40;;;;;;;21.72;35.50;101207.91;5484233;25;20106;-64